createdAt,value
2022-10-20T00:01:04.799Z,4.23
2022-10-20T00:03:32.670Z,5.13
2022-10-20T00:06:07.977Z,4.70
2022-10-20T00:08:35.912Z,4.33
2022-10-20T00:11:03.894Z,4.70
2022-10-20T00:13:33.197Z,4.43
2022-10-20T00:16:01.428Z,4.80
2022-10-20T00:18:29.316Z,4.57
2022-10-20T00:20:57.257Z,5.00
2022-10-20T00:23:25.109Z,3.80
2022-10-20T00:26:02.137Z,4.37
2022-10-20T00:28:30.067Z,3.90
2022-10-20T00:30:59.349Z,4.27
2022-10-20T00:33:27.621Z,4.10
2022-10-20T00:35:55.476Z,4.47
2022-10-20T00:38:23.338Z,4.20
2022-10-20T00:40:51.262Z,4.40
2022-10-20T00:43:19.097Z,4.17
2022-10-20T00:45:52.066Z,4.10
2022-10-20T00:48:22.253Z,4.30
2022-10-20T00:50:50.963Z,3.73
2022-10-20T00:53:18.936Z,4.50
2022-10-20T00:55:48.316Z,4.60
2022-10-20T00:58:16.177Z,4.33
2022-10-20T01:00:44.616Z,4.33
2022-10-20T01:03:14.571Z,4.10
2022-10-20T01:05:43.803Z,3.67
2022-10-20T01:08:11.689Z,4.03
2022-10-20T01:10:42.512Z,4.00
2022-10-20T01:13:13.459Z,3.83
2022-10-20T01:15:44.190Z,4.80
2022-10-20T01:18:14.165Z,4.37
2022-10-20T01:21:13.292Z,4.70
2022-10-20T01:24:03.763Z,4.40
2022-10-20T01:27:13.204Z,4.53
2022-10-20T01:29:43.600Z,4.00
2022-10-20T01:32:13.921Z,4.07
2022-10-20T01:34:46.912Z,4.30
2022-10-20T01:37:28.412Z,4.40
2022-10-20T01:40:10.089Z,4.20
2022-10-20T01:42:37.964Z,4.40
2022-10-20T01:45:08.468Z,5.03
2022-10-20T01:47:36.787Z,4.77
2022-10-20T01:50:05.315Z,4.67
2022-10-20T01:52:33.346Z,4.27
2022-10-20T01:55:01.486Z,4.70
2022-10-20T01:57:37.092Z,3.90
2022-10-20T02:00:08.526Z,4.33
2022-10-20T02:02:44.094Z,4.17
2022-10-20T02:05:19.323Z,4.40
2022-10-20T02:07:47.177Z,4.67
2022-10-20T02:10:17.943Z,4.50
2022-10-20T02:12:47.235Z,3.90
2022-10-20T02:15:19.029Z,3.90
2022-10-20T02:17:46.933Z,4.47
2022-10-20T02:20:14.784Z,4.67
2022-10-20T02:22:42.671Z,4.73
2022-10-20T02:25:11.907Z,4.73
2022-10-20T02:27:41.892Z,4.53
2022-10-20T02:30:10.984Z,4.47
2022-10-20T02:32:41.324Z,4.93
2022-10-20T02:35:12.135Z,4.70
2022-10-20T02:37:40.276Z,5.03
2022-10-20T02:40:09.357Z,5.00
2022-10-20T02:42:37.586Z,4.73
2022-10-20T02:45:06.196Z,4.60
2022-10-20T02:47:34.432Z,4.37
2022-10-20T02:50:03.906Z,4.80
2022-10-20T02:52:31.758Z,5.10
2022-10-20T02:54:59.601Z,4.80
2022-10-20T02:57:27.662Z,4.63
2022-10-20T02:59:55.515Z,4.63
2022-10-20T03:02:23.398Z,4.00
2022-10-20T03:04:51.280Z,4.23
2022-10-20T03:07:20.569Z,3.67
2022-10-20T03:09:48.956Z,4.10
2022-10-20T03:12:16.847Z,4.37
2022-10-20T03:14:45.464Z,4.30
2022-10-20T03:17:13.374Z,3.83
2022-10-20T03:19:41.443Z,3.80
2022-10-20T03:22:09.365Z,3.97
2022-10-20T03:24:38.565Z,4.37
2022-10-20T03:27:06.501Z,3.60
2022-10-20T03:29:34.376Z,3.80
2022-10-20T03:32:02.241Z,3.63
2022-10-20T03:34:30.118Z,3.50
2022-10-20T03:36:58.001Z,3.60
2022-10-20T03:39:25.880Z,3.30
2022-10-20T03:41:56.078Z,3.60
2022-10-20T03:44:23.943Z,3.97
2022-10-20T03:46:51.792Z,3.57
2022-10-20T03:49:19.678Z,3.50
2022-10-20T03:51:47.530Z,3.90
2022-10-20T03:54:15.364Z,3.73
2022-10-20T03:56:43.224Z,3.83
2022-10-20T03:59:12.464Z,3.53
2022-10-20T04:01:40.406Z,3.43
2022-10-20T04:04:08.316Z,3.60
2022-10-20T04:06:36.166Z,3.03
2022-10-20T04:09:04.956Z,3.30
2022-10-20T04:11:32.893Z,3.00
2022-10-20T04:14:00.750Z,4.10
2022-10-20T04:16:29.979Z,2.93
2022-10-20T04:18:57.870Z,3.30
2022-10-20T04:21:26.406Z,3.07
2022-10-20T04:23:54.284Z,2.97
2022-10-20T04:26:22.123Z,3.20
2022-10-20T04:28:50.008Z,2.80
2022-10-20T04:31:17.902Z,2.93
2022-10-20T04:33:47.998Z,3.20
2022-10-20T04:36:15.929Z,3.30
2022-10-20T04:38:43.810Z,3.60
2022-10-20T04:41:11.756Z,3.60
2022-10-20T04:43:39.600Z,3.17
2022-10-20T04:46:08.836Z,3.27
2022-10-20T04:48:37.152Z,3.33
2022-10-20T04:51:07.784Z,3.03
2022-10-20T04:53:35.791Z,3.17
2022-10-20T04:56:04.081Z,3.20
2022-10-20T04:58:32.041Z,3.17
2022-10-20T05:01:01.997Z,3.20
2022-10-20T05:03:29.862Z,3.13
2022-10-20T05:06:10.177Z,3.00
2022-10-20T05:08:38.506Z,3.00
2022-10-20T05:11:06.681Z,2.83
2022-10-20T05:13:34.623Z,3.00
2022-10-20T05:16:02.497Z,2.80
2022-10-20T05:18:30.506Z,2.90
2022-10-20T05:21:08.278Z,4.27
2022-10-20T05:23:38.895Z,3.33
2022-10-20T05:26:07.028Z,3.40
2022-10-20T05:28:34.933Z,3.37
2022-10-20T05:31:03.129Z,3.53
2022-10-20T05:33:30.994Z,3.30
2022-10-20T05:35:58.872Z,4.13
2022-10-20T05:38:26.779Z,4.20
2022-10-20T05:40:56.050Z,5.20
2022-10-20T05:43:23.926Z,4.40
2022-10-20T05:45:55.149Z,3.87
2022-10-20T05:48:23.038Z,3.30
2022-10-20T05:50:50.935Z,3.50
2022-10-20T05:53:18.825Z,3.50
2022-10-20T05:55:46.797Z,3.33
2022-10-20T05:58:19.591Z,3.23
2022-10-20T06:00:52.972Z,3.33
2022-10-20T06:03:23.739Z,3.77
2022-10-20T06:05:58.628Z,3.17
2022-10-20T06:08:26.547Z,3.60
2022-10-20T06:10:54.394Z,3.50
2022-10-20T06:13:23.686Z,3.40
2022-10-20T06:15:53.876Z,3.63
2022-10-20T06:18:21.721Z,3.20
2022-10-20T06:20:49.624Z,3.70
2022-10-20T06:23:17.460Z,3.80
2022-10-20T06:25:45.345Z,3.40
2022-10-20T06:28:13.218Z,3.40
2022-10-20T06:30:42.621Z,3.70
2022-10-20T06:33:12.315Z,3.97
2022-10-20T06:35:40.239Z,3.20
2022-10-20T06:38:08.090Z,3.63
2022-10-20T06:40:36.071Z,3.90
2022-10-20T06:43:04.096Z,2.97
2022-10-20T06:45:32.049Z,3.93
2022-10-20T06:48:03.161Z,3.80
2022-10-20T06:50:31.897Z,3.40
2022-10-20T06:52:59.821Z,4.17
2022-10-20T06:55:27.656Z,3.60
2022-10-20T06:57:55.520Z,3.27
2022-10-20T07:00:23.424Z,3.30
2022-10-20T07:02:51.316Z,4.53
2022-10-20T07:05:21.959Z,4.23
2022-10-20T07:07:51.688Z,4.20
2022-10-20T07:10:19.542Z,4.00
2022-10-20T07:12:47.433Z,4.87
2022-10-20T07:15:15.436Z,5.07
2022-10-20T07:17:43.316Z,5.57
2022-10-20T07:20:11.552Z,5.97
2022-10-20T07:22:40.773Z,4.77
2022-10-20T07:25:09.477Z,4.03
2022-10-20T07:27:37.781Z,3.90
2022-10-20T07:30:07.607Z,3.63
2022-10-20T07:32:37.890Z,4.00
2022-10-20T07:35:08.009Z,3.20
2022-10-20T07:37:36.026Z,3.80
2022-10-20T07:40:06.530Z,3.60
2022-10-20T07:42:34.684Z,3.57
2022-10-20T07:45:02.862Z,3.60
2022-10-20T07:47:34.140Z,3.10
2022-10-20T07:50:04.963Z,3.20
2022-10-20T07:52:32.876Z,3.40
2022-10-20T07:55:12.307Z,3.37
2022-10-20T07:57:46.867Z,3.43
2022-10-20T08:00:15.043Z,4.40
2022-10-20T08:02:45.260Z,3.23
2022-10-20T08:05:13.227Z,3.00
2022-10-20T08:07:43.500Z,4.07
2022-10-20T08:10:11.584Z,5.17
2022-10-20T08:12:39.498Z,4.20
2022-10-20T08:15:09.828Z,4.00
2022-10-20T08:17:37.841Z,3.97
2022-10-20T08:20:10.730Z,3.80
2022-10-20T08:22:39.147Z,6.33
2022-10-20T08:25:08.119Z,4.07
2022-10-20T08:27:35.997Z,4.20
2022-10-20T08:30:23.035Z,3.90
2022-10-20T08:32:53.715Z,3.83
2022-10-20T08:35:21.728Z,3.50
2022-10-20T08:37:49.609Z,3.90
2022-10-20T08:40:18.327Z,3.30
2022-10-20T08:42:46.460Z,3.57
2022-10-20T08:45:15.872Z,3.60
2022-10-20T08:47:43.742Z,3.07
2022-10-20T08:50:13.892Z,3.50
2022-10-20T08:52:42.008Z,4.00
2022-10-20T08:55:12.461Z,3.33
2022-10-20T08:57:40.679Z,3.83
2022-10-20T09:00:15.472Z,3.03
2022-10-20T09:02:43.413Z,3.10
2022-10-20T09:05:15.395Z,2.80
2022-10-20T09:07:48.522Z,3.47
2022-10-20T09:10:24.256Z,4.90
2022-10-20T09:12:52.202Z,4.00
2022-10-20T09:15:21.004Z,4.30
2022-10-20T09:17:50.859Z,3.40
2022-10-20T09:20:22.103Z,4.10
2022-10-20T09:22:49.963Z,3.70
2022-10-20T09:25:19.196Z,4.03
2022-10-20T09:27:47.162Z,3.63
2022-10-20T09:30:17.376Z,3.93
2022-10-20T09:32:47.030Z,3.33
2022-10-20T09:35:27.794Z,4.80
2022-10-20T09:37:58.951Z,3.90
2022-10-20T09:40:27.218Z,3.57
2022-10-20T09:42:55.985Z,3.47
2022-10-20T09:45:24.762Z,3.23
2022-10-20T09:47:53.696Z,3.60
2022-10-20T09:50:24.756Z,4.03
2022-10-20T09:52:52.663Z,3.80
2022-10-20T09:55:27.735Z,3.30
2022-10-20T09:57:55.774Z,3.50
2022-10-20T10:00:36.779Z,3.30
2022-10-20T10:03:19.953Z,3.00
2022-10-20T10:05:50.661Z,3.10
2022-10-20T10:08:18.758Z,3.07
2022-10-20T10:10:47.306Z,4.30
2022-10-20T10:13:25.033Z,3.00
2022-10-20T10:16:04.434Z,2.93
2022-10-20T10:18:32.304Z,3.50
2022-10-20T10:21:03.236Z,3.20
2022-10-20T10:23:31.659Z,3.30
2022-10-20T10:26:02.232Z,3.33
2022-10-20T10:28:35.713Z,3.43
2022-10-20T10:31:22.696Z,3.33
2022-10-20T10:33:56.306Z,2.87
2022-10-20T10:36:31.181Z,3.00
2022-10-20T10:38:59.779Z,3.73
2022-10-20T10:41:42.780Z,2.90
2022-10-20T10:44:12.421Z,3.30
2022-10-20T10:49:43.744Z,3.47
2022-10-20T10:52:21.472Z,3.30
2022-10-20T10:54:59.189Z,3.60
2022-10-20T10:57:31.226Z,3.80
2022-10-20T11:00:01.086Z,3.80
2022-10-20T11:02:56.839Z,3.30
2022-10-20T11:05:28.991Z,4.00
2022-10-20T11:08:04.294Z,4.57
2022-10-20T11:10:35.215Z,3.90
2022-10-20T11:13:16.014Z,3.93
2022-10-20T11:15:59.785Z,3.87
2022-10-20T11:18:45.582Z,3.57
2022-10-20T11:21:20.817Z,3.50
2022-10-20T11:24:05.162Z,3.10
2022-10-20T11:26:33.768Z,3.20
2022-10-20T11:29:02.099Z,3.47
2022-10-20T11:31:31.705Z,3.10
2022-10-20T11:34:02.924Z,3.30
2022-10-20T11:36:33.631Z,2.78
2022-10-20T11:39:04.230Z,3.85
2022-10-20T11:41:35.215Z,2.92
2022-10-20T11:44:04.655Z,3.35
2022-10-20T11:46:35.934Z,3.55
2022-10-20T11:49:04.923Z,3.60
2022-10-20T11:51:45.237Z,3.42
2022-10-20T11:54:52.072Z,3.40
2022-10-20T11:57:25.131Z,3.72
2022-10-20T12:00:12.600Z,4.15
2022-10-20T12:03:13.149Z,3.15
2022-10-20T12:05:56.713Z,3.45
2022-10-20T12:08:35.175Z,3.15
2022-10-20T12:11:07.358Z,2.80
2022-10-20T12:13:40.179Z,2.60
2022-10-20T12:16:08.088Z,2.95
2022-10-20T12:18:36.668Z,2.92
2022-10-20T12:21:04.644Z,2.63
2022-10-20T12:23:55.033Z,2.42
2022-10-20T12:26:42.371Z,2.72
2022-10-20T12:29:52.176Z,2.50
2022-10-20T12:32:41.452Z,2.00
2022-10-20T12:35:32.489Z,1.58
2022-10-20T12:38:02.425Z,1.52
2022-10-20T12:40:32.020Z,1.42
2022-10-20T12:43:01.216Z,1.17
2022-10-20T12:45:36.188Z,1.27
2022-10-20T12:48:04.136Z,1.40
2022-10-20T12:50:34.797Z,1.48
2022-10-20T12:53:12.078Z,1.42
2022-10-20T12:55:41.908Z,1.52
2022-10-20T12:58:27.461Z,1.20
2022-10-20T13:01:09.261Z,1.20
2022-10-20T13:03:39.390Z,1.23
2022-10-20T13:06:41.247Z,1.45
2022-10-20T13:09:22.452Z,1.40
2022-10-20T13:11:57.106Z,1.60
2022-10-20T13:14:51.278Z,1.40
2022-10-20T13:17:25.445Z,1.40
2022-10-20T13:20:01.182Z,1.25
2022-10-20T13:22:43.224Z,1.20
2022-10-20T13:25:30.842Z,1.40
2022-10-20T13:28:15.993Z,1.30
2022-10-20T13:31:03.192Z,1.27
2022-10-20T13:33:51.555Z,1.33
2022-10-20T13:36:23.385Z,1.20
2022-10-20T13:38:53.932Z,1.42
2022-10-20T13:41:24.165Z,1.60
2022-10-20T13:43:57.764Z,1.40
2022-10-20T13:46:35.839Z,1.60
2022-10-20T13:49:11.858Z,1.70
2022-10-20T13:51:44.968Z,1.65
2022-10-20T13:54:17.579Z,1.52
2022-10-20T13:56:47.680Z,1.83
2022-10-20T14:01:54.122Z,1.30
2022-10-20T14:04:26.149Z,1.60
2022-10-20T14:06:54.080Z,1.65
2022-10-20T14:09:23.356Z,1.48
2022-10-20T14:11:53.173Z,1.45
2022-10-20T14:14:22.900Z,1.65
2022-10-20T14:16:55.353Z,1.48
2022-10-20T14:19:27.756Z,1.50
2022-10-20T14:21:56.301Z,1.38
2022-10-20T14:24:33.887Z,1.73
2022-10-20T14:27:02.364Z,1.77
2022-10-20T14:29:31.236Z,1.67
2022-10-20T14:32:00.499Z,1.98
2022-10-20T14:34:29.801Z,2.17
2022-10-20T14:36:57.737Z,1.90
2022-10-20T14:39:32.930Z,1.50
2022-10-20T14:42:01.391Z,1.63
2022-10-20T14:44:31.802Z,1.60
2022-10-20T14:47:06.114Z,1.38
2022-10-20T14:49:35.266Z,1.73
2022-10-20T14:52:03.579Z,1.35
2022-10-20T14:54:37.095Z,1.30
2022-10-20T14:57:33.279Z,1.25
2022-10-20T15:00:03.262Z,1.50
2022-10-20T15:02:33.852Z,1.60
2022-10-20T15:05:25.449Z,1.30
2022-10-20T15:08:04.716Z,1.60
2022-10-20T15:10:38.697Z,1.20
2022-10-20T15:15:43.825Z,1.42
2022-10-20T15:18:16.444Z,1.75
2022-10-20T15:20:45.658Z,1.90
2022-10-20T15:23:15.479Z,1.92
2022-10-20T15:25:48.359Z,1.90
2022-10-20T15:28:37.852Z,1.60
2022-10-20T15:31:06.942Z,2.45
2022-10-20T15:33:36.230Z,1.98
2022-10-20T15:36:04.152Z,1.65
2022-10-20T15:38:32.029Z,1.48
2022-10-20T15:43:33.881Z,1.60
2022-10-20T15:46:01.825Z,1.70
2022-10-20T15:48:29.701Z,1.40
2022-10-20T15:50:59.392Z,1.30
2022-10-20T15:53:27.341Z,1.50
2022-10-20T15:55:55.231Z,1.60
2022-10-20T15:58:23.160Z,1.57
2022-10-20T16:00:51.145Z,2.30
2022-10-20T16:03:19.643Z,1.70
2022-10-20T16:05:47.616Z,1.83
2022-10-20T16:08:16.909Z,1.70
2022-10-20T16:10:45.233Z,1.87
2022-10-20T16:13:13.089Z,1.60
2022-10-20T16:15:40.976Z,1.40
2022-10-20T16:18:09.934Z,1.80
2022-10-20T16:20:38.607Z,1.37
2022-10-20T16:23:06.505Z,2.00
2022-10-20T16:25:35.777Z,1.50
2022-10-20T16:28:03.647Z,1.50
2022-10-20T16:30:31.616Z,1.23
2022-10-20T16:32:59.549Z,1.30
2022-10-20T16:35:27.671Z,1.30
2022-10-20T16:37:55.570Z,1.27
2022-10-20T16:40:23.441Z,1.33
2022-10-20T16:42:52.685Z,1.80
2022-10-20T16:45:20.665Z,1.40
2022-10-20T16:47:48.550Z,1.70
2022-10-20T16:50:17.713Z,1.63
2022-10-20T16:52:45.593Z,1.50
2022-10-20T16:55:13.572Z,1.47
2022-10-20T16:57:41.550Z,1.60
2022-10-20T17:00:12.012Z,1.70
2022-10-20T17:02:42.970Z,1.50
2022-10-20T17:05:11.118Z,1.40
2022-10-20T17:07:39.512Z,1.50
2022-10-20T17:10:08.460Z,1.70
2022-10-20T17:12:36.320Z,1.20
2022-10-20T17:15:04.418Z,1.40
2022-10-20T17:17:33.681Z,1.47
2022-10-20T17:20:01.563Z,1.70
2022-10-20T17:22:29.455Z,1.30
2022-10-20T17:24:57.322Z,1.30
2022-10-20T17:27:27.971Z,1.33
2022-10-20T17:29:55.833Z,1.30
2022-10-20T17:32:23.670Z,1.87
2022-10-20T17:34:52.992Z,2.83
2022-10-20T17:37:20.877Z,6.47
2022-10-20T17:39:48.715Z,1.90
2022-10-20T17:42:16.603Z,1.60
2022-10-20T17:44:44.855Z,1.40
2022-10-20T17:47:12.740Z,1.30
2022-10-20T17:49:40.595Z,1.23
2022-10-20T17:52:09.904Z,2.07
2022-10-20T17:54:37.773Z,1.47
2022-10-20T17:57:05.776Z,1.80
2022-10-20T17:59:38.303Z,1.80
2022-10-20T18:02:15.431Z,1.83
2022-10-20T18:04:43.317Z,1.77
2022-10-20T18:07:12.610Z,1.83
2022-10-20T18:09:40.637Z,1.83
2022-10-20T18:12:08.606Z,1.67
2022-10-20T18:14:36.485Z,1.43
2022-10-20T18:17:04.341Z,1.73
2022-10-20T18:19:32.269Z,1.80
2022-10-20T18:22:01.230Z,1.97
2022-10-20T18:24:30.681Z,2.00
2022-10-20T18:26:58.865Z,1.67
2022-10-20T18:29:26.766Z,1.60
2022-10-20T18:31:54.648Z,2.00
2022-10-20T18:34:22.560Z,1.93
2022-10-20T18:36:50.759Z,2.27
2022-10-20T18:39:18.620Z,1.60
2022-10-20T18:41:47.874Z,1.50
2022-10-20T18:44:16.569Z,1.37
2022-10-20T18:46:44.503Z,1.40
2022-10-20T18:49:13.158Z,1.67
2022-10-20T18:51:41.070Z,1.97
2022-10-20T18:54:09.405Z,1.83
2022-10-20T18:56:37.654Z,1.73
2022-10-20T18:59:08.495Z,1.40
2022-10-20T19:01:37.280Z,1.60
2022-10-20T19:04:05.427Z,1.53
2022-10-20T19:06:33.937Z,1.47
2022-10-20T19:09:02.786Z,1.60
2022-10-20T19:11:32.047Z,1.33
2022-10-20T19:14:00.023Z,1.40
2022-10-20T19:16:29.936Z,1.30
2022-10-20T19:18:58.771Z,1.77
2022-10-20T19:21:26.798Z,1.70
2022-10-20T19:23:57.577Z,1.93
2022-10-20T19:26:26.473Z,2.33
2022-10-20T19:28:58.646Z,2.20
2022-10-20T19:31:29.784Z,2.43
2022-10-20T19:33:58.749Z,2.27
2022-10-20T19:36:26.802Z,2.37
2022-10-20T19:38:54.672Z,2.20
2022-10-20T19:41:22.730Z,1.73
2022-10-20T19:43:50.769Z,1.73
2022-10-20T19:46:19.264Z,3.87
2022-10-20T19:48:48.767Z,1.70
2022-10-20T19:51:17.058Z,1.70
2022-10-20T19:53:45.106Z,2.10
2022-10-20T19:56:13.127Z,1.90
2022-10-20T19:58:44.056Z,1.90
2022-10-20T20:01:14.430Z,1.73
2022-10-20T20:03:42.361Z,1.93
2022-10-20T20:06:16.179Z,1.83
2022-10-20T20:08:44.726Z,1.73
2022-10-20T20:11:13.817Z,1.87
2022-10-20T20:13:41.680Z,1.90
2022-10-20T20:16:09.732Z,1.70
2022-10-20T20:18:37.599Z,1.87
2022-10-20T20:21:05.971Z,1.50
2022-10-20T20:23:47.567Z,2.00
2022-10-20T20:26:23.245Z,1.73
2022-10-20T20:28:52.869Z,1.90
2022-10-20T20:31:20.783Z,1.93
2022-10-20T20:33:48.678Z,1.63
2022-10-20T20:36:16.550Z,1.50
2022-10-20T20:38:45.792Z,2.30
2022-10-20T20:41:14.741Z,2.07
2022-10-20T20:43:45.094Z,2.33
2022-10-20T20:46:14.095Z,2.40
2022-10-20T20:48:42.005Z,2.40
2022-10-20T20:51:09.852Z,1.80
2022-10-20T20:53:37.804Z,2.07
2022-10-20T20:56:08.253Z,1.77
2022-10-20T20:58:36.159Z,1.70
2022-10-20T21:01:04.305Z,1.63
2022-10-20T21:03:32.414Z,1.60
2022-10-20T21:06:04.030Z,1.43
2022-10-20T21:08:33.191Z,1.57
2022-10-20T21:11:07.487Z,1.50
2022-10-20T21:13:35.631Z,1.50
2022-10-20T21:16:10.970Z,1.33
2022-10-20T21:18:39.032Z,1.60
2022-10-20T21:23:44.459Z,1.50
2022-10-20T21:26:14.457Z,1.30
2022-10-20T21:28:42.502Z,1.37
2022-10-20T21:31:12.053Z,1.33
2022-10-20T21:33:39.880Z,1.47
2022-10-20T21:36:08.728Z,1.57
2022-10-20T21:38:37.548Z,1.83
2022-10-20T21:41:05.649Z,1.90
2022-10-20T21:43:35.065Z,2.23
2022-10-20T21:46:11.741Z,1.80
2022-10-20T21:48:39.641Z,1.93
2022-10-20T21:51:09.161Z,1.80
2022-10-20T21:53:37.077Z,2.03
2022-10-20T21:56:05.116Z,1.90
2022-10-20T21:58:34.597Z,1.70
2022-10-20T22:01:08.914Z,1.87
2022-10-20T22:03:36.748Z,1.13
2022-10-20T22:06:04.679Z,1.40
2022-10-20T22:08:32.617Z,1.47
2022-10-20T22:11:03.574Z,1.23
2022-10-20T22:13:32.119Z,1.30
2022-10-20T22:16:01.431Z,1.30
2022-10-20T22:18:29.287Z,1.53
2022-10-20T22:20:57.148Z,1.37
2022-10-20T22:23:25.068Z,1.57
2022-10-20T22:25:53.960Z,1.50
2022-10-20T22:28:21.819Z,1.90
2022-10-20T22:30:49.694Z,1.70
2022-10-20T22:33:18.995Z,1.53
2022-10-20T22:35:46.831Z,1.60
2022-10-20T22:38:14.748Z,1.20
2022-10-20T22:40:42.649Z,1.30
2022-10-20T22:43:10.541Z,1.50
2022-10-20T22:45:38.379Z,1.73
2022-10-20T22:48:06.705Z,1.97
2022-10-20T22:50:35.948Z,1.70
2022-10-20T22:53:03.813Z,1.70
2022-10-20T22:55:31.664Z,1.43
2022-10-20T23:00:32.354Z,2.03
2022-10-20T23:03:00.188Z,1.77
2022-10-20T23:05:28.065Z,2.13
2022-10-20T23:07:57.340Z,2.53
2022-10-20T23:10:25.185Z,2.20
2022-10-20T23:12:53.016Z,2.50
2022-10-20T23:15:20.875Z,2.57
2022-10-20T23:17:48.749Z,2.90
2022-10-20T23:20:16.623Z,2.80
2022-10-20T23:22:44.513Z,2.80
2022-10-20T23:25:13.789Z,3.20
2022-10-20T23:27:41.652Z,3.03
2022-10-20T23:30:10.209Z,3.07
2022-10-20T23:32:38.101Z,3.37
2022-10-20T23:35:07.255Z,2.97
2022-10-20T23:37:36.868Z,3.27
2022-10-20T23:40:05.712Z,2.67
2022-10-20T23:42:34.993Z,3.20
2022-10-20T23:45:03.182Z,2.90
2022-10-20T23:47:31.003Z,2.50
2022-10-20T23:49:58.905Z,3.37
2022-10-20T23:52:26.843Z,3.13
2022-10-20T23:54:54.761Z,2.80
2022-10-20T23:57:22.654Z,2.90
2022-10-20T23:59:51.899Z,2.30
